sensor_id;sensor_type;location;lat;lon;timestamp;P1;durP1;ratioP1;P2;durP2;ratioP2
45206;SDS011;30950;53.086;21.576;2023-05-10T00:01:57;7.90;;;5.15;;
45206;SDS011;30950;53.086;21.576;2023-05-10T00:04:24;10.77;;;5.75;;
45206;SDS011;30950;53.086;21.576;2023-05-10T00:06:54;11.02;;;5.40;;
45206;SDS011;30950;53.086;21.576;2023-05-10T00:09:21;8.70;;;5.38;;
45206;SDS011;30950;53.086;21.576;2023-05-10T00:11:48;9.48;;;5.53;;
45206;SDS011;30950;53.086;21.576;2023-05-10T00:14:16;13.00;;;5.10;;
45206;SDS011;30950;53.086;21.576;2023-05-10T00:16:43;10.25;;;5.35;;
45206;SDS011;30950;53.086;21.576;2023-05-10T00:19:11;7.30;;;5.05;;
45206;SDS011;30950;53.086;21.576;2023-05-10T00:21:38;7.68;;;5.07;;
45206;SDS011;30950;53.086;21.576;2023-05-10T00:24:05;9.35;;;5.75;;
45206;SDS011;30950;53.086;21.576;2023-05-10T00:26:32;7.68;;;4.60;;
45206;SDS011;30950;53.086;21.576;2023-05-10T00:28:59;12.55;;;5.38;;
45206;SDS011;30950;53.086;21.576;2023-05-10T00:31:27;12.70;;;5.82;;
45206;SDS011;30950;53.086;21.576;2023-05-10T00:33:56;18.85;;;6.15;;
45206;SDS011;30950;53.086;21.576;2023-05-10T00:36:23;8.68;;;5.35;;
45206;SDS011;30950;53.086;21.576;2023-05-10T00:38:51;8.85;;;5.20;;
45206;SDS011;30950;53.086;21.576;2023-05-10T00:41:18;11.82;;;5.90;;
45206;SDS011;30950;53.086;21.576;2023-05-10T00:43:46;11.70;;;5.53;;
45206;SDS011;30950;53.086;21.576;2023-05-10T00:46:14;11.57;;;5.60;;
45206;SDS011;30950;53.086;21.576;2023-05-10T00:48:43;9.70;;;6.00;;
45206;SDS011;30950;53.086;21.576;2023-05-10T00:51:11;10.25;;;5.60;;
45206;SDS011;30950;53.086;21.576;2023-05-10T00:53:38;8.13;;;5.45;;
45206;SDS011;30950;53.086;21.576;2023-05-10T00:56:06;9.48;;;5.35;;
45206;SDS011;30950;53.086;21.576;2023-05-10T00:58:33;7.78;;;4.85;;
45206;SDS011;30950;53.086;21.576;2023-05-10T01:01:01;7.40;;;5.65;;
45206;SDS011;30950;53.086;21.576;2023-05-10T01:03:28;11.85;;;5.30;;
45206;SDS011;30950;53.086;21.576;2023-05-10T01:05:56;14.88;;;5.55;;
45206;SDS011;30950;53.086;21.576;2023-05-10T01:08:23;8.02;;;4.97;;
45206;SDS011;30950;53.086;21.576;2023-05-10T01:10:52;11.85;;;5.20;;
45206;SDS011;30950;53.086;21.576;2023-05-10T01:13:28;8.10;;;5.22;;
45206;SDS011;30950;53.086;21.576;2023-05-10T01:16:00;9.05;;;5.22;;
45206;SDS011;30950;53.086;21.576;2023-05-10T01:18:30;11.43;;;6.05;;
45206;SDS011;30950;53.086;21.576;2023-05-10T01:21:06;10.20;;;5.47;;
45206;SDS011;30950;53.086;21.576;2023-05-10T01:23:52;7.88;;;4.78;;
45206;SDS011;30950;53.086;21.576;2023-05-10T01:32:19;10.68;;;5.70;;
45206;SDS011;30950;53.086;21.576;2023-05-10T01:34:54;13.05;;;6.57;;
45206;SDS011;30950;53.086;21.576;2023-05-10T01:40:18;8.35;;;4.70;;
45206;SDS011;30950;53.086;21.576;2023-05-10T01:43:03;9.73;;;5.78;;
45206;SDS011;30950;53.086;21.576;2023-05-10T01:45:38;8.98;;;5.20;;
45206;SDS011;30950;53.086;21.576;2023-05-10T01:48:12;10.73;;;5.68;;
45206;SDS011;30950;53.086;21.576;2023-05-10T01:50:44;8.43;;;5.40;;
45206;SDS011;30950;53.086;21.576;2023-05-10T01:53:13;7.60;;;5.38;;
45206;SDS011;30950;53.086;21.576;2023-05-10T01:55:46;7.50;;;4.90;;
45206;SDS011;30950;53.086;21.576;2023-05-10T01:58:25;8.63;;;5.65;;
45206;SDS011;30950;53.086;21.576;2023-05-10T02:00:55;8.35;;;5.85;;
45206;SDS011;30950;53.086;21.576;2023-05-10T02:03:27;8.75;;;5.88;;
45206;SDS011;30950;53.086;21.576;2023-05-10T02:05:56;7.75;;;4.95;;
45206;SDS011;30950;53.086;21.576;2023-05-10T02:08:25;8.38;;;5.95;;
45206;SDS011;30950;53.086;21.576;2023-05-10T02:10:54;7.20;;;5.40;;
45206;SDS011;30950;53.086;21.576;2023-05-10T02:13:24;9.20;;;4.90;;
45206;SDS011;30950;53.086;21.576;2023-05-10T02:15:53;10.40;;;6.03;;
45206;SDS011;30950;53.086;21.576;2023-05-10T02:18:21;8.70;;;5.32;;
45206;SDS011;30950;53.086;21.576;2023-05-10T02:20:50;9.13;;;6.53;;
45206;SDS011;30950;53.086;21.576;2023-05-10T02:23:20;12.93;;;6.00;;
45206;SDS011;30950;53.086;21.576;2023-05-10T02:25:49;9.73;;;5.63;;
45206;SDS011;30950;53.086;21.576;2023-05-10T02:28:21;12.57;;;5.75;;
45206;SDS011;30950;53.086;21.576;2023-05-10T02:30:49;13.93;;;5.53;;
45206;SDS011;30950;53.086;21.576;2023-05-10T02:33:19;8.82;;;6.10;;
45206;SDS011;30950;53.086;21.576;2023-05-10T02:35:48;8.77;;;5.85;;
45206;SDS011;30950;53.086;21.576;2023-05-10T02:38:18;11.73;;;7.25;;
45206;SDS011;30950;53.086;21.576;2023-05-10T02:40:47;17.38;;;7.03;;
45206;SDS011;30950;53.086;21.576;2023-05-10T02:43:15;9.82;;;5.82;;
45206;SDS011;30950;53.086;21.576;2023-05-10T02:45:46;12.02;;;6.10;;
45206;SDS011;30950;53.086;21.576;2023-05-10T02:48:15;9.88;;;5.35;;
45206;SDS011;30950;53.086;21.576;2023-05-10T02:50:44;8.85;;;5.43;;
45206;SDS011;30950;53.086;21.576;2023-05-10T02:53:15;7.65;;;5.30;;
45206;SDS011;30950;53.086;21.576;2023-05-10T02:55:45;9.07;;;5.97;;
45206;SDS011;30950;53.086;21.576;2023-05-10T02:58:18;7.90;;;5.30;;
45206;SDS011;30950;53.086;21.576;2023-05-10T03:00:48;8.95;;;6.00;;
45206;SDS011;30950;53.086;21.576;2023-05-10T03:03:16;9.50;;;5.40;;
45206;SDS011;30950;53.086;21.576;2023-05-10T03:05:43;13.55;;;5.97;;
45206;SDS011;30950;53.086;21.576;2023-05-10T03:08:10;9.60;;;5.30;;
45206;SDS011;30950;53.086;21.576;2023-05-10T03:10:42;13.27;;;5.68;;
45206;SDS011;30950;53.086;21.576;2023-05-10T03:13:28;8.63;;;5.90;;
45206;SDS011;30950;53.086;21.576;2023-05-10T03:16:18;9.85;;;5.60;;
45206;SDS011;30950;53.086;21.576;2023-05-10T03:18:56;9.60;;;5.45;;
45206;SDS011;30950;53.086;21.576;2023-05-10T03:21:33;12.20;;;5.63;;
45206;SDS011;30950;53.086;21.576;2023-05-10T03:24:06;7.40;;;5.40;;
45206;SDS011;30950;53.086;21.576;2023-05-10T03:26:36;9.27;;;5.78;;
45206;SDS011;30950;53.086;21.576;2023-05-10T03:29:12;11.00;;;5.72;;
45206;SDS011;30950;53.086;21.576;2023-05-10T03:31:41;11.68;;;5.72;;
45206;SDS011;30950;53.086;21.576;2023-05-10T03:34:08;11.48;;;6.15;;
45206;SDS011;30950;53.086;21.576;2023-05-10T03:36:36;10.30;;;6.18;;
45206;SDS011;30950;53.086;21.576;2023-05-10T03:39:03;9.25;;;6.28;;
45206;SDS011;30950;53.086;21.576;2023-05-10T03:41:30;13.48;;;6.00;;
45206;SDS011;30950;53.086;21.576;2023-05-10T03:43:58;10.48;;;5.65;;
45206;SDS011;30950;53.086;21.576;2023-05-10T03:46:25;9.75;;;6.00;;
45206;SDS011;30950;53.086;21.576;2023-05-10T03:48:52;10.50;;;5.72;;
45206;SDS011;30950;53.086;21.576;2023-05-10T03:51:20;13.85;;;6.30;;
45206;SDS011;30950;53.086;21.576;2023-05-10T03:53:47;10.85;;;6.32;;
45206;SDS011;30950;53.086;21.576;2023-05-10T03:56:15;11.60;;;6.40;;
45206;SDS011;30950;53.086;21.576;2023-05-10T03:58:42;11.93;;;6.43;;
45206;SDS011;30950;53.086;21.576;2023-05-10T04:01:11;10.88;;;5.85;;
45206;SDS011;30950;53.086;21.576;2023-05-10T04:03:38;9.32;;;5.93;;
45206;SDS011;30950;53.086;21.576;2023-05-10T04:06:06;11.63;;;6.30;;
45206;SDS011;30950;53.086;21.576;2023-05-10T04:08:35;13.05;;;6.75;;
45206;SDS011;30950;53.086;21.576;2023-05-10T04:11:06;8.63;;;5.72;;
45206;SDS011;30950;53.086;21.576;2023-05-10T04:13:38;8.98;;;5.97;;
45206;SDS011;30950;53.086;21.576;2023-05-10T04:16:05;12.85;;;7.18;;
45206;SDS011;30950;53.086;21.576;2023-05-10T04:18:33;7.38;;;5.55;;
45206;SDS011;30950;53.086;21.576;2023-05-10T04:21:00;11.15;;;6.93;;
45206;SDS011;30950;53.086;21.576;2023-05-10T04:23:27;11.18;;;5.57;;
45206;SDS011;30950;53.086;21.576;2023-05-10T04:26:01;10.18;;;6.30;;
45206;SDS011;30950;53.086;21.576;2023-05-10T04:28:28;8.65;;;5.85;;
45206;SDS011;30950;53.086;21.576;2023-05-10T04:36:00;11.10;;;6.63;;
45206;SDS011;30950;53.086;21.576;2023-05-10T04:38:28;11.25;;;6.72;;
45206;SDS011;30950;53.086;21.576;2023-05-10T04:41:08;13.82;;;6.53;;
45206;SDS011;30950;53.086;21.576;2023-05-10T04:43:37;11.07;;;6.63;;
45206;SDS011;30950;53.086;21.576;2023-05-10T04:46:05;10.40;;;5.82;;
45206;SDS011;30950;53.086;21.576;2023-05-10T04:48:34;12.88;;;7.20;;
45206;SDS011;30950;53.086;21.576;2023-05-10T04:51:01;10.40;;;5.90;;
45206;SDS011;30950;53.086;21.576;2023-05-10T04:53:30;11.02;;;5.95;;
45206;SDS011;30950;53.086;21.576;2023-05-10T04:55:57;11.13;;;5.72;;
45206;SDS011;30950;53.086;21.576;2023-05-10T04:58:25;13.60;;;5.78;;
45206;SDS011;30950;53.086;21.576;2023-05-10T05:00:52;8.88;;;6.38;;
45206;SDS011;30950;53.086;21.576;2023-05-10T05:03:20;8.90;;;5.70;;
45206;SDS011;30950;53.086;21.576;2023-05-10T05:05:50;8.52;;;6.18;;
45206;SDS011;30950;53.086;21.576;2023-05-10T05:08:17;9.32;;;5.15;;
45206;SDS011;30950;53.086;21.576;2023-05-10T05:10:44;8.95;;;5.63;;
45206;SDS011;30950;53.086;21.576;2023-05-10T05:13:12;10.52;;;5.65;;
45206;SDS011;30950;53.086;21.576;2023-05-10T05:15:39;9.25;;;5.57;;
45206;SDS011;30950;53.086;21.576;2023-05-10T05:18:07;10.23;;;5.45;;
45206;SDS011;30950;53.086;21.576;2023-05-10T05:20:34;9.73;;;5.55;;
45206;SDS011;30950;53.086;21.576;2023-05-10T05:23:01;10.15;;;4.90;;
45206;SDS011;30950;53.086;21.576;2023-05-10T05:25:28;8.20;;;5.28;;
45206;SDS011;30950;53.086;21.576;2023-05-10T05:27:56;8.50;;;5.47;;
45206;SDS011;30950;53.086;21.576;2023-05-10T05:30:23;10.85;;;5.68;;
45206;SDS011;30950;53.086;21.576;2023-05-10T05:32:51;9.27;;;4.85;;
45206;SDS011;30950;53.086;21.576;2023-05-10T05:35:18;6.18;;;4.38;;
45206;SDS011;30950;53.086;21.576;2023-05-10T05:37:46;15.73;;;5.38;;
45206;SDS011;30950;53.086;21.576;2023-05-10T05:40:13;8.32;;;4.55;;
45206;SDS011;30950;53.086;21.576;2023-05-10T05:42:41;10.15;;;5.13;;
45206;SDS011;30950;53.086;21.576;2023-05-10T05:45:08;8.05;;;4.78;;
45206;SDS011;30950;53.086;21.576;2023-05-10T05:47:40;9.77;;;4.65;;
45206;SDS011;30950;53.086;21.576;2023-05-10T05:50:07;8.23;;;5.35;;
45206;SDS011;30950;53.086;21.576;2023-05-10T05:52:35;11.45;;;4.45;;
45206;SDS011;30950;53.086;21.576;2023-05-10T05:55:02;173.07;;;16.85;;
45206;SDS011;30950;53.086;21.576;2023-05-10T05:57:30;14.07;;;6.03;;
45206;SDS011;30950;53.086;21.576;2023-05-10T05:59:57;7.32;;;4.75;;
45206;SDS011;30950;53.086;21.576;2023-05-10T06:02:25;12.07;;;4.80;;
45206;SDS011;30950;53.086;21.576;2023-05-10T06:04:52;9.90;;;4.50;;
45206;SDS011;30950;53.086;21.576;2023-05-10T06:07:19;9.45;;;4.90;;
45206;SDS011;30950;53.086;21.576;2023-05-10T06:09:47;12.60;;;6.05;;
45206;SDS011;30950;53.086;21.576;2023-05-10T06:12:14;8.90;;;5.15;;
45206;SDS011;30950;53.086;21.576;2023-05-10T06:14:41;9.30;;;4.97;;
45206;SDS011;30950;53.086;21.576;2023-05-10T06:17:09;6.97;;;4.03;;
45206;SDS011;30950;53.086;21.576;2023-05-10T06:19:36;12.88;;;3.78;;
45206;SDS011;30950;53.086;21.576;2023-05-10T06:22:03;10.68;;;3.95;;
45206;SDS011;30950;53.086;21.576;2023-05-10T06:24:30;11.35;;;4.15;;
45206;SDS011;30950;53.086;21.576;2023-05-10T06:26:58;8.77;;;4.18;;
45206;SDS011;30950;53.086;21.576;2023-05-10T06:29:26;9.68;;;4.22;;
45206;SDS011;30950;53.086;21.576;2023-05-10T06:31:54;9.05;;;3.70;;
45206;SDS011;30950;53.086;21.576;2023-05-10T06:34:21;8.27;;;3.40;;
45206;SDS011;30950;53.086;21.576;2023-05-10T06:36:48;7.90;;;3.78;;
45206;SDS011;30950;53.086;21.576;2023-05-10T06:39:15;10.20;;;3.22;;
45206;SDS011;30950;53.086;21.576;2023-05-10T06:41:43;6.88;;;3.40;;
45206;SDS011;30950;53.086;21.576;2023-05-10T06:44:10;7.05;;;3.22;;
45206;SDS011;30950;53.086;21.576;2023-05-10T06:46:37;7.53;;;3.60;;
45206;SDS011;30950;53.086;21.576;2023-05-10T06:49:05;10.80;;;3.65;;
45206;SDS011;30950;53.086;21.576;2023-05-10T06:51:32;5.65;;;3.45;;
45206;SDS011;30950;53.086;21.576;2023-05-10T06:54:00;11.20;;;3.75;;
45206;SDS011;30950;53.086;21.576;2023-05-10T06:56:28;24.73;;;5.03;;
45206;SDS011;30950;53.086;21.576;2023-05-10T06:58:55;19.05;;;4.13;;
45206;SDS011;30950;53.086;21.576;2023-05-10T07:01:22;13.00;;;5.10;;
45206;SDS011;30950;53.086;21.576;2023-05-10T07:03:50;41.45;;;7.10;;
45206;SDS011;30950;53.086;21.576;2023-05-10T07:06:17;13.60;;;4.28;;
45206;SDS011;30950;53.086;21.576;2023-05-10T07:08:58;11.30;;;4.13;;
45206;SDS011;30950;53.086;21.576;2023-05-10T07:11:26;10.50;;;3.90;;
45206;SDS011;30950;53.086;21.576;2023-05-10T07:13:53;9.75;;;4.18;;
45206;SDS011;30950;53.086;21.576;2023-05-10T07:16:21;12.65;;;4.07;;
45206;SDS011;30950;53.086;21.576;2023-05-10T07:18:48;14.07;;;4.53;;
45206;SDS011;30950;53.086;21.576;2023-05-10T07:21:17;9.25;;;3.85;;
45206;SDS011;30950;53.086;21.576;2023-05-10T07:23:44;9.73;;;4.55;;
45206;SDS011;30950;53.086;21.576;2023-05-10T07:26:11;20.58;;;4.68;;
45206;SDS011;30950;53.086;21.576;2023-05-10T07:28:38;6.60;;;2.97;;
45206;SDS011;30950;53.086;21.576;2023-05-10T07:31:06;9.88;;;3.72;;
45206;SDS011;30950;53.086;21.576;2023-05-10T07:33:33;9.98;;;4.30;;
45206;SDS011;30950;53.086;21.576;2023-05-10T07:36:00;11.35;;;3.70;;
45206;SDS011;30950;53.086;21.576;2023-05-10T07:38:27;11.85;;;4.50;;
45206;SDS011;30950;53.086;21.576;2023-05-10T07:40:55;10.45;;;3.78;;
45206;SDS011;30950;53.086;21.576;2023-05-10T07:43:22;12.45;;;4.30;;
45206;SDS011;30950;53.086;21.576;2023-05-10T07:45:49;8.13;;;3.30;;
45206;SDS011;30950;53.086;21.576;2023-05-10T07:48:20;6.05;;;3.30;;
45206;SDS011;30950;53.086;21.576;2023-05-10T07:50:47;8.35;;;3.17;;
45206;SDS011;30950;53.086;21.576;2023-05-10T07:53:14;7.03;;;3.15;;
45206;SDS011;30950;53.086;21.576;2023-05-10T07:55:42;7.75;;;3.90;;
45206;SDS011;30950;53.086;21.576;2023-05-10T07:58:09;7.90;;;3.10;;
45206;SDS011;30950;53.086;21.576;2023-05-10T08:00:36;8.70;;;4.25;;
45206;SDS011;30950;53.086;21.576;2023-05-10T08:03:05;12.05;;;4.00;;
45206;SDS011;30950;53.086;21.576;2023-05-10T08:05:33;6.78;;;3.40;;
45206;SDS011;30950;53.086;21.576;2023-05-10T08:08:01;8.45;;;3.40;;
45206;SDS011;30950;53.086;21.576;2023-05-10T08:10:28;8.00;;;3.95;;
45206;SDS011;30950;53.086;21.576;2023-05-10T08:12:55;12.52;;;3.65;;
45206;SDS011;30950;53.086;21.576;2023-05-10T08:15:25;7.93;;;3.30;;
45206;SDS011;30950;53.086;21.576;2023-05-10T08:17:52;8.82;;;3.30;;
45206;SDS011;30950;53.086;21.576;2023-05-10T08:20:19;8.55;;;3.58;;
45206;SDS011;30950;53.086;21.576;2023-05-10T08:22:47;8.43;;;4.22;;
45206;SDS011;30950;53.086;21.576;2023-05-10T08:25:17;9.85;;;3.78;;
45206;SDS011;30950;53.086;21.576;2023-05-10T08:27:45;8.52;;;3.53;;
45206;SDS011;30950;53.086;21.576;2023-05-10T08:30:12;6.75;;;3.40;;
45206;SDS011;30950;53.086;21.576;2023-05-10T08:32:39;25.73;;;5.55;;
45206;SDS011;30950;53.086;21.576;2023-05-10T08:35:07;12.35;;;3.47;;
45206;SDS011;30950;53.086;21.576;2023-05-10T08:37:34;5.53;;;3.42;;
45206;SDS011;30950;53.086;21.576;2023-05-10T08:40:01;10.75;;;4.88;;
45206;SDS011;30950;53.086;21.576;2023-05-10T08:42:30;8.93;;;4.68;;
45206;SDS011;30950;53.086;21.576;2023-05-10T08:45:02;7.03;;;3.65;;
45206;SDS011;30950;53.086;21.576;2023-05-10T08:47:31;8.38;;;4.80;;
45206;SDS011;30950;53.086;21.576;2023-05-10T08:49:58;9.57;;;3.83;;
45206;SDS011;30950;53.086;21.576;2023-05-10T08:52:26;14.65;;;3.70;;
45206;SDS011;30950;53.086;21.576;2023-05-10T08:54:56;12.13;;;4.50;;
45206;SDS011;30950;53.086;21.576;2023-05-10T08:57:24;14.50;;;4.30;;
45206;SDS011;30950;53.086;21.576;2023-05-10T08:59:52;8.60;;;3.30;;
45206;SDS011;30950;53.086;21.576;2023-05-10T09:02:19;7.97;;;3.03;;
45206;SDS011;30950;53.086;21.576;2023-05-10T09:04:47;9.85;;;2.75;;
45206;SDS011;30950;53.086;21.576;2023-05-10T09:07:15;9.93;;;3.55;;
45206;SDS011;30950;53.086;21.576;2023-05-10T09:09:43;8.55;;;4.18;;
45206;SDS011;30950;53.086;21.576;2023-05-10T09:12:12;7.68;;;3.67;;
45206;SDS011;30950;53.086;21.576;2023-05-10T09:14:42;4.80;;;3.00;;
45206;SDS011;30950;53.086;21.576;2023-05-10T09:17:11;11.43;;;3.50;;
45206;SDS011;30950;53.086;21.576;2023-05-10T09:19:39;12.57;;;4.22;;
45206;SDS011;30950;53.086;21.576;2023-05-10T09:22:06;6.65;;;3.60;;
45206;SDS011;30950;53.086;21.576;2023-05-10T09:24:33;13.18;;;4.35;;
45206;SDS011;30950;53.086;21.576;2023-05-10T09:27:01;7.78;;;3.70;;
45206;SDS011;30950;53.086;21.576;2023-05-10T09:29:38;12.70;;;3.58;;
45206;SDS011;30950;53.086;21.576;2023-05-10T09:32:09;7.63;;;4.63;;
45206;SDS011;30950;53.086;21.576;2023-05-10T09:34:36;10.85;;;3.85;;
45206;SDS011;30950;53.086;21.576;2023-05-10T09:37:06;9.27;;;3.85;;
45206;SDS011;30950;53.086;21.576;2023-05-10T09:39:35;7.80;;;3.17;;
45206;SDS011;30950;53.086;21.576;2023-05-10T09:42:05;21.20;;;3.53;;
45206;SDS011;30950;53.086;21.576;2023-05-10T09:44:34;5.80;;;3.00;;
45206;SDS011;30950;53.086;21.576;2023-05-10T09:47:02;10.48;;;3.80;;
45206;SDS011;30950;53.086;21.576;2023-05-10T09:49:30;9.25;;;3.20;;
45206;SDS011;30950;53.086;21.576;2023-05-10T09:52:06;10.65;;;4.45;;
45206;SDS011;30950;53.086;21.576;2023-05-10T09:54:34;10.15;;;4.25;;
45206;SDS011;30950;53.086;21.576;2023-05-10T09:57:02;12.55;;;3.05;;
45206;SDS011;30950;53.086;21.576;2023-05-10T09:59:30;5.07;;;2.90;;
45206;SDS011;30950;53.086;21.576;2023-05-10T10:01:59;7.82;;;3.65;;
45206;SDS011;30950;53.086;21.576;2023-05-10T10:04:27;6.35;;;3.28;;
45206;SDS011;30950;53.086;21.576;2023-05-10T10:06:58;9.45;;;3.22;;
45206;SDS011;30950;53.086;21.576;2023-05-10T10:09:27;5.85;;;2.95;;
45206;SDS011;30950;53.086;21.576;2023-05-10T10:11:54;7.75;;;3.08;;
45206;SDS011;30950;53.086;21.576;2023-05-10T10:14:23;3.85;;;2.67;;
45206;SDS011;30950;53.086;21.576;2023-05-10T10:16:50;7.22;;;2.97;;
45206;SDS011;30950;53.086;21.576;2023-05-10T10:19:33;5.25;;;3.00;;
45206;SDS011;30950;53.086;21.576;2023-05-10T10:22:02;6.70;;;3.00;;
45206;SDS011;30950;53.086;21.576;2023-05-10T10:24:30;4.43;;;2.67;;
45206;SDS011;30950;53.086;21.576;2023-05-10T10:26:59;4.72;;;2.20;;
45206;SDS011;30950;53.086;21.576;2023-05-10T10:29:44;9.65;;;3.58;;
45206;SDS011;30950;53.086;21.576;2023-05-10T10:32:42;7.50;;;2.78;;
45206;SDS011;30950;53.086;21.576;2023-05-10T10:35:46;5.60;;;2.80;;
45206;SDS011;30950;53.086;21.576;2023-05-10T10:38:13;12.43;;;3.63;;
45206;SDS011;30950;53.086;21.576;2023-05-10T10:40:41;14.68;;;3.42;;
45206;SDS011;30950;53.086;21.576;2023-05-10T10:43:21;4.60;;;2.63;;
45206;SDS011;30950;53.086;21.576;2023-05-10T10:48:40;7.00;;;2.50;;
45206;SDS011;30950;53.086;21.576;2023-05-10T10:51:08;6.00;;;3.13;;
45206;SDS011;30950;53.086;21.576;2023-05-10T10:53:38;4.80;;;2.35;;
45206;SDS011;30950;53.086;21.576;2023-05-10T10:56:08;4.78;;;3.00;;
45206;SDS011;30950;53.086;21.576;2023-05-10T10:58:40;6.63;;;3.25;;
45206;SDS011;30950;53.086;21.576;2023-05-10T11:01:12;4.05;;;2.70;;
45206;SDS011;30950;53.086;21.576;2023-05-10T11:04:16;4.82;;;2.67;;
45206;SDS011;30950;53.086;21.576;2023-05-10T11:06:42;5.40;;;2.83;;
45206;SDS011;30950;53.086;21.576;2023-05-10T11:09:10;7.40;;;2.72;;
45206;SDS011;30950;53.086;21.576;2023-05-10T11:11:48;13.38;;;3.40;;
45206;SDS011;30950;53.086;21.576;2023-05-10T11:14:19;5.18;;;3.25;;
45206;SDS011;30950;53.086;21.576;2023-05-10T11:16:49;6.35;;;2.90;;
45206;SDS011;30950;53.086;21.576;2023-05-10T11:19:16;9.70;;;2.88;;
45206;SDS011;30950;53.086;21.576;2023-05-10T11:24:16;5.25;;;2.70;;
45206;SDS011;30950;53.086;21.576;2023-05-10T11:26:50;9.90;;;2.42;;
45206;SDS011;30950;53.086;21.576;2023-05-10T11:29:18;7.85;;;2.53;;
45206;SDS011;30950;53.086;21.576;2023-05-10T11:31:47;8.45;;;3.47;;
45206;SDS011;30950;53.086;21.576;2023-05-10T11:34:30;12.52;;;2.60;;
45206;SDS011;30950;53.086;21.576;2023-05-10T11:37:01;7.85;;;3.80;;
45206;SDS011;30950;53.086;21.576;2023-05-10T11:39:29;3.88;;;2.53;;
45206;SDS011;30950;53.086;21.576;2023-05-10T11:41:57;8.20;;;3.38;;
45206;SDS011;30950;53.086;21.576;2023-05-10T11:44:34;5.97;;;2.38;;
45206;SDS011;30950;53.086;21.576;2023-05-10T11:49:29;5.07;;;2.65;;
45206;SDS011;30950;53.086;21.576;2023-05-10T11:52:05;7.40;;;2.90;;
45206;SDS011;30950;53.086;21.576;2023-05-10T11:54:34;7.30;;;3.00;;
45206;SDS011;30950;53.086;21.576;2023-05-10T11:57:02;5.18;;;2.40;;
45206;SDS011;30950;53.086;21.576;2023-05-10T11:59:30;8.98;;;2.50;;
45206;SDS011;30950;53.086;21.576;2023-05-10T12:01:57;6.78;;;2.63;;
45206;SDS011;30950;53.086;21.576;2023-05-10T12:04:24;6.13;;;3.08;;
45206;SDS011;30950;53.086;21.576;2023-05-10T12:06:52;10.32;;;4.40;;
45206;SDS011;30950;53.086;21.576;2023-05-10T12:09:20;7.30;;;2.75;;
45206;SDS011;30950;53.086;21.576;2023-05-10T12:12:07;7.63;;;2.70;;
45206;SDS011;30950;53.086;21.576;2023-05-10T12:14:35;7.35;;;2.72;;
45206;SDS011;30950;53.086;21.576;2023-05-10T12:17:03;10.25;;;2.90;;
45206;SDS011;30950;53.086;21.576;2023-05-10T12:19:37;7.00;;;2.55;;
45206;SDS011;30950;53.086;21.576;2023-05-10T12:22:05;5.03;;;2.30;;
45206;SDS011;30950;53.086;21.576;2023-05-10T12:24:36;7.57;;;2.60;;
45206;SDS011;30950;53.086;21.576;2023-05-10T12:27:05;4.38;;;2.30;;
45206;SDS011;30950;53.086;21.576;2023-05-10T12:29:52;5.20;;;3.13;;
45206;SDS011;30950;53.086;21.576;2023-05-10T12:32:21;7.25;;;3.28;;
45206;SDS011;30950;53.086;21.576;2023-05-10T12:35:03;7.72;;;2.72;;
45206;SDS011;30950;53.086;21.576;2023-05-10T12:37:31;6.07;;;2.95;;
45206;SDS011;30950;53.086;21.576;2023-05-10T12:40:02;5.47;;;2.95;;
45206;SDS011;30950;53.086;21.576;2023-05-10T12:42:31;5.13;;;3.33;;
45206;SDS011;30950;53.086;21.576;2023-05-10T12:44:59;4.18;;;2.38;;
45206;SDS011;30950;53.086;21.576;2023-05-10T12:47:26;4.57;;;2.50;;
45206;SDS011;30950;53.086;21.576;2023-05-10T12:49:53;3.83;;;2.35;;
45206;SDS011;30950;53.086;21.576;2023-05-10T12:52:20;10.82;;;2.28;;
45206;SDS011;30950;53.086;21.576;2023-05-10T12:54:47;13.48;;;2.95;;
45206;SDS011;30950;53.086;21.576;2023-05-10T12:57:15;4.95;;;2.92;;
45206;SDS011;30950;53.086;21.576;2023-05-10T12:59:43;6.50;;;2.58;;
45206;SDS011;30950;53.086;21.576;2023-05-10T13:02:10;5.65;;;3.40;;
45206;SDS011;30950;53.086;21.576;2023-05-10T13:04:37;4.72;;;2.65;;
45206;SDS011;30950;53.086;21.576;2023-05-10T13:07:06;7.40;;;3.17;;
45206;SDS011;30950;53.086;21.576;2023-05-10T13:09:34;7.43;;;3.33;;
45206;SDS011;30950;53.086;21.576;2023-05-10T13:12:01;6.47;;;2.80;;
45206;SDS011;30950;53.086;21.576;2023-05-10T13:14:29;4.07;;;2.75;;
45206;SDS011;30950;53.086;21.576;2023-05-10T13:16:56;5.95;;;2.40;;
45206;SDS011;30950;53.086;21.576;2023-05-10T13:19:24;6.05;;;2.50;;
45206;SDS011;30950;53.086;21.576;2023-05-10T13:21:52;5.60;;;2.80;;
45206;SDS011;30950;53.086;21.576;2023-05-10T13:24:20;6.30;;;2.97;;
45206;SDS011;30950;53.086;21.576;2023-05-10T13:26:48;6.47;;;2.60;;
45206;SDS011;30950;53.086;21.576;2023-05-10T13:29:16;3.80;;;2.55;;
45206;SDS011;30950;53.086;21.576;2023-05-10T13:31:44;7.00;;;2.60;;
45206;SDS011;30950;53.086;21.576;2023-05-10T13:34:12;6.70;;;2.95;;
45206;SDS011;30950;53.086;21.576;2023-05-10T13:36:39;8.30;;;2.33;;
45206;SDS011;30950;53.086;21.576;2023-05-10T13:39:07;4.88;;;2.60;;
45206;SDS011;30950;53.086;21.576;2023-05-10T13:41:35;7.60;;;2.53;;
45206;SDS011;30950;53.086;21.576;2023-05-10T13:44:03;8.57;;;2.78;;
45206;SDS011;30950;53.086;21.576;2023-05-10T13:46:30;6.07;;;2.97;;
45206;SDS011;30950;53.086;21.576;2023-05-10T13:48:58;3.08;;;2.30;;
45206;SDS011;30950;53.086;21.576;2023-05-10T13:51:25;6.10;;;3.80;;
45206;SDS011;30950;53.086;21.576;2023-05-10T13:53:53;4.07;;;2.90;;
45206;SDS011;30950;53.086;21.576;2023-05-10T13:56:20;4.78;;;2.47;;
45206;SDS011;30950;53.086;21.576;2023-05-10T13:58:47;6.85;;;2.70;;
45206;SDS011;30950;53.086;21.576;2023-05-10T14:01:14;6.05;;;2.67;;
45206;SDS011;30950;53.086;21.576;2023-05-10T14:03:42;3.92;;;2.35;;
45206;SDS011;30950;53.086;21.576;2023-05-10T14:06:09;8.05;;;3.60;;
45206;SDS011;30950;53.086;21.576;2023-05-10T14:08:37;4.47;;;2.38;;
45206;SDS011;30950;53.086;21.576;2023-05-10T14:11:04;4.25;;;2.40;;
45206;SDS011;30950;53.086;21.576;2023-05-10T14:13:31;3.72;;;2.30;;
45206;SDS011;30950;53.086;21.576;2023-05-10T14:15:59;4.82;;;2.33;;
45206;SDS011;30950;53.086;21.576;2023-05-10T14:18:27;4.13;;;2.10;;
45206;SDS011;30950;53.086;21.576;2023-05-10T14:20:55;4.28;;;2.15;;
45206;SDS011;30950;53.086;21.576;2023-05-10T14:23:22;3.33;;;2.47;;
45206;SDS011;30950;53.086;21.576;2023-05-10T14:25:55;11.35;;;3.05;;
45206;SDS011;30950;53.086;21.576;2023-05-10T14:28:23;5.50;;;2.20;;
45206;SDS011;30950;53.086;21.576;2023-05-10T14:30:51;5.30;;;2.55;;
45206;SDS011;30950;53.086;21.576;2023-05-10T14:33:18;6.65;;;2.95;;
45206;SDS011;30950;53.086;21.576;2023-05-10T14:35:47;4.72;;;2.28;;
45206;SDS011;30950;53.086;21.576;2023-05-10T14:38:14;7.38;;;2.92;;
45206;SDS011;30950;53.086;21.576;2023-05-10T14:40:42;4.97;;;2.40;;
45206;SDS011;30950;53.086;21.576;2023-05-10T14:43:09;5.60;;;2.72;;
45206;SDS011;30950;53.086;21.576;2023-05-10T14:45:36;5.40;;;2.90;;
45206;SDS011;30950;53.086;21.576;2023-05-10T14:48:04;4.45;;;2.50;;
45206;SDS011;30950;53.086;21.576;2023-05-10T14:50:31;7.15;;;2.45;;
45206;SDS011;30950;53.086;21.576;2023-05-10T14:53:03;4.70;;;2.22;;
45206;SDS011;30950;53.086;21.576;2023-05-10T14:55:30;3.65;;;2.25;;
45206;SDS011;30950;53.086;21.576;2023-05-10T14:57:58;3.10;;;2.10;;
45206;SDS011;30950;53.086;21.576;2023-05-10T15:00:25;4.82;;;2.20;;
45206;SDS011;30950;53.086;21.576;2023-05-10T15:02:54;4.53;;;2.40;;
45206;SDS011;30950;53.086;21.576;2023-05-10T15:05:22;6.32;;;3.65;;